Time;durP1;ratioP1;P1;durP2;ratioP2;P2;SDS_P1;SDS_P2;PMS_P1;PMS_P2;Temp;Humidity;BMP_temperature;BMP_pressure;BME280_temperature;BME280_humidity;BME280_pressure;Samples;Min_cycle;Max_cycle;Signal;HPM_P1;HPM_P2
2023/10/09 00:01:26;;;;;;;11.33;4.07;;;;;;;;;;5072206;28;20223;-69
2023/10/09 00:03:55;;;;;;;5.50;4.27;;;;;;;;;;5072219;28;20631;-68
2023/10/09 00:06:36;;;;;;;6.50;3.47;;;;;;;;;;5071991;28;20208;-68
2023/10/09 00:09:30;;;;;;;11.33;4.20;;;;;;;;;;5072354;28;20212;-68
2023/10/09 00:11:57;;;;;;;9.70;3.63;;;;;;;;;;5046284;28;20223;-68
2023/10/09 00:14:24;;;;;;;7.13;3.43;;;;;;;;;;5072143;28;20205;-68
2023/10/09 00:16:56;;;;;;;5.13;3.97;;;;;;;;;;5070208;28;20201;-68
2023/10/09 00:19:30;;;;;;;6.93;3.70;;;;;;;;;;5071571;28;20678;-68
2023/10/09 00:22:03;;;;;;;12.97;4.13;;;;;;;;;;5071983;28;20683;-68
2023/10/09 00:24:30;;;;;;;7.17;4.27;;;;;;;;;;5072214;28;20205;-69
2023/10/09 00:27:11;;;;;;;8.93;3.63;;;;;;;;;;5071942;28;20205;-68
2023/10/09 00:29:44;;;;;;;9.97;3.83;;;;;;;;;;5071653;28;20280;-70
2023/10/09 00:32:22;;;;;;;9.13;4.03;;;;;;;;;;5071701;28;20795;-69
2023/10/09 00:34:50;;;;;;;8.63;3.60;;;;;;;;;;5049238;28;20266;-68
2023/10/09 00:37:22;;;;;;;4.87;3.53;;;;;;;;;;5071340;28;20648;-69
2023/10/09 00:39:55;;;;;;;9.50;4.27;;;;;;;;;;5071419;28;20211;-69
2023/10/09 00:42:27;;;;;;;11.80;4.67;;;;;;;;;;5071482;28;20216;-68
2023/10/09 00:44:54;;;;;;;6.17;3.30;;;;;;;;;;5071690;28;20645;-68
2023/10/09 00:47:26;;;;;;;10.37;3.00;;;;;;;;;;5070855;28;20249;-69
2023/10/09 00:49:59;;;;;;;12.87;2.57;;;;;;;;;;5071857;28;20262;-68
2023/10/09 00:52:39;;;;;;;14.37;3.27;;;;;;;;;;5045122;28;20224;-68
2023/10/09 00:55:13;;;;;;;9.73;2.47;;;;;;;;;;5071671;28;20581;-69
2023/10/09 00:57:47;;;;;;;3.60;2.00;;;;;;;;;;5071304;28;20200;-68
2023/10/09 01:00:31;;;;;;;7.50;2.10;;;;;;;;;;5070492;28;20204;-69
2023/10/09 01:03:11;;;;;;;8.73;2.03;;;;;;;;;;5070153;28;20988;-69
2023/10/09 01:05:38;;;;;;;2.50;1.77;;;;;;;;;;5048495;28;20205;-68
2023/10/09 01:08:16;;;;;;;5.33;2.03;;;;;;;;;;5070943;28;20277;-68
2023/10/09 01:10:56;;;;;;;2.90;1.70;;;;;;;;;;5071236;28;20257;-69
2023/10/09 01:13:38;;;;;;;5.33;2.57;;;;;;;;;;5070770;28;20205;-68
2023/10/09 01:16:07;;;;;;;5.00;1.87;;;;;;;;;;5071494;28;20202;-68
2023/10/09 01:18:38;;;;;;;5.67;1.90;;;;;;;;;;5071603;28;20211;-68
2023/10/09 01:21:05;;;;;;;3.30;1.40;;;;;;;;;;5070484;28;20208;-69
2023/10/09 01:23:33;;;;;;;5.13;1.20;;;;;;;;;;5071254;28;20197;-68
2023/10/09 01:26:00;;;;;;;4.33;1.73;;;;;;;;;;5070770;28;20279;-69
2023/10/09 01:28:28;;;;;;;7.17;2.13;;;;;;;;;;5070775;28;20250;-69
2023/10/09 01:30:55;;;;;;;2.97;1.73;;;;;;;;;;5070194;28;20217;-69
2023/10/09 01:33:23;;;;;;;8.67;2.13;;;;;;;;;;5070654;28;20564;-69
2023/10/09 01:35:55;;;;;;;5.30;2.40;;;;;;;;;;5071196;28;20587;-69
2023/10/09 01:38:31;;;;;;;5.07;1.53;;;;;;;;;;5070591;28;20636;-69
2023/10/09 01:41:07;;;;;;;3.50;1.10;;;;;;;;;;5070652;28;20280;-69
2023/10/09 01:43:34;;;;;;;4.90;1.90;;;;;;;;;;5070663;28;20206;-69
2023/10/09 01:46:04;;;;;;;5.10;1.50;;;;;;;;;;5070831;28;20655;-69
2023/10/09 01:48:35;;;;;;;12.40;1.93;;;;;;;;;;5069949;28;20205;-69
2023/10/09 01:51:04;;;;;;;3.50;1.67;;;;;;;;;;5070656;28;20220;-69
2023/10/09 01:53:33;;;;;;;2.57;1.20;;;;;;;;;;5070155;28;20885;-69
2023/10/09 01:56:15;;;;;;;6.20;1.70;;;;;;;;;;5070593;28;20204;-69
2023/10/09 01:58:45;;;;;;;1.90;0.93;;;;;;;;;;5070593;28;20211;-70
2023/10/09 02:01:12;;;;;;;7.23;2.40;;;;;;;;;;5070264;28;20299;-70
2023/10/09 02:03:41;;;;;;;9.63;1.37;;;;;;;;;;5070820;28;20204;-69
2023/10/09 02:06:24;;;;;;;1.90;1.10;;;;;;;;;;5070388;28;20209;-69
2023/10/09 02:08:53;;;;;;;4.33;1.40;;;;;;;;;;5049102;28;20205;-69
2023/10/09 02:11:36;;;;;;;3.00;1.43;;;;;;;;;;5070458;28;20299;-69
2023/10/09 02:14:19;;;;;;;6.20;2.00;;;;;;;;;;5072616;28;20652;-69
2023/10/09 02:17:02;;;;;;;3.30;1.57;;;;;;;;;;5074161;28;20203;-71
2023/10/09 02:19:34;;;;;;;2.87;1.27;;;;;;;;;;5074505;28;20299;-72
2023/10/09 02:22:12;;;;;;;2.63;1.20;;;;;;;;;;5074306;28;20211;-71
2023/10/09 02:24:57;;;;;;;2.37;1.20;;;;;;;;;;5074255;28;20297;-71
2023/10/09 02:27:45;;;;;;;4.30;1.40;;;;;;;;;;5073639;28;20200;-71
2023/10/09 02:33:06;;;;;;;1.63;1.27;;;;;;;;;;5072991;28;20228;-72
2023/10/09 02:35:37;;;;;;;1.43;1.10;;;;;;;;;;5074057;28;20670;-72
2023/10/09 02:38:07;;;;;;;2.00;1.30;;;;;;;;;;5073217;28;20209;-72
2023/10/09 02:41:04;;;;;;;2.10;1.40;;;;;;;;;;5073852;28;20643;-72
2023/10/09 02:43:25;;;;;;;3.23;1.00;;;;;;;;;;5073382;28;20296;-72
2023/10/09 02:45:52;;;;;;;3.67;1.80;;;;;;;;;;5068165;28;20699;-71
2023/10/09 02:48:20;;;;;;;2.60;1.10;;;;;;;;;;5071009;28;20216;-71
2023/10/09 02:50:50;;;;;;;1.80;1.27;;;;;;;;;;5069775;28;20635;-72
2023/10/09 02:53:19;;;;;;;2.07;1.10;;;;;;;;;;5071922;28;20256;-72
2023/10/09 02:56:02;;;;;;;2.60;1.10;;;;;;;;;;5069812;28;20228;-72
2023/10/09 02:58:32;;;;;;;3.43;1.30;;;;;;;;;;5069474;28;20230;-71
2023/10/09 03:00:59;;;;;;;4.67;1.37;;;;;;;;;;5058571;28;20263;-71
2023/10/09 03:03:27;;;;;;;3.17;1.10;;;;;;;;;;5061639;28;20198;-71
2023/10/09 03:05:54;;;;;;;2.10;1.40;;;;;;;;;;5062888;28;20212;-72
2023/10/09 03:08:21;;;;;;;3.10;1.37;;;;;;;;;;5062932;28;20205;-71
2023/10/09 03:10:48;;;;;;;1.73;1.07;;;;;;;;;;5063796;28;20208;-71
2023/10/09 03:13:19;;;;;;;1.10;1.00;;;;;;;;;;5062853;28;20234;-72
2023/10/09 03:15:48;;;;;;;4.50;1.30;;;;;;;;;;5065228;28;20197;-72
2023/10/09 03:18:15;;;;;;;1.43;1.10;;;;;;;;;;5060812;28;20201;-72
2023/10/09 03:20:44;;;;;;;2.03;0.90;;;;;;;;;;5066014;28;20205;-71
2023/10/09 03:23:14;;;;;;;2.03;1.20;;;;;;;;;;5053814;28;20209;-71
2023/10/09 03:25:45;;;;;;;1.67;1.33;;;;;;;;;;5065754;28;20207;-72
2023/10/09 03:28:12;;;;;;;0.87;0.87;;;;;;;;;;5072916;28;20703;-71
2023/10/09 03:30:40;;;;;;;1.03;0.90;;;;;;;;;;5073527;28;20683;-72
2023/10/09 03:33:08;;;;;;;1.20;1.00;;;;;;;;;;5072859;28;20219;-71
2023/10/09 03:35:36;;;;;;;2.17;1.33;;;;;;;;;;5073335;28;20205;-72
2023/10/09 03:38:11;;;;;;;1.43;1.00;;;;;;;;;;5073078;28;20204;-71
2023/10/09 03:40:42;;;;;;;1.50;1.37;;;;;;;;;;5072803;28;20286;-71
2023/10/09 03:43:10;;;;;;;1.20;1.10;;;;;;;;;;5073229;28;20201;-71
2023/10/09 03:45:39;;;;;;;1.10;1.00;;;;;;;;;;5072343;28;20684;-71
2023/10/09 03:48:15;;;;;;;3.20;1.40;;;;;;;;;;5072379;28;20259;-71
2023/10/09 03:50:43;;;;;;;1.00;1.00;;;;;;;;;;5073134;28;20225;-71
2023/10/09 03:53:12;;;;;;;2.70;1.30;;;;;;;;;;5072767;28;20221;-72
2023/10/09 03:55:39;;;;;;;2.90;1.33;;;;;;;;;;5046086;28;20576;-72
2023/10/09 03:58:06;;;;;;;1.40;1.30;;;;;;;;;;5072170;28;20212;-73
2023/10/09 04:00:44;;;;;;;6.90;1.50;;;;;;;;;;5072932;28;20202;-72
2023/10/09 04:03:11;;;;;;;3.57;1.50;;;;;;;;;;5072003;28;20208;-72
2023/10/09 04:05:40;;;;;;;1.53;1.20;;;;;;;;;;5072765;28;20201;-72
2023/10/09 04:08:13;;;;;;;1.03;0.93;;;;;;;;;;5072333;28;20749;-72
2023/10/09 04:10:52;;;;;;;1.40;1.00;;;;;;;;;;5071015;28;20589;-72
2023/10/09 04:13:22;;;;;;;1.03;1.03;;;;;;;;;;5059431;28;20239;-72
2023/10/09 04:15:52;;;;;;;1.70;1.27;;;;;;;;;;5054813;28;20676;-73
2023/10/09 04:18:20;;;;;;;1.27;1.20;;;;;;;;;;5071761;28;20205;-72
2023/10/09 04:23:59;;;;;;;2.83;1.10;;;;;;;;;;5050978;28;20224;-72
2023/10/09 04:26:25;;;;;;;2.70;2.07;;;;;;;;;;5071219;28;20209;-73
2023/10/09 04:28:52;;;;;;;1.97;1.30;;;;;;;;;;5071949;28;20211;-73
2023/10/09 04:31:22;;;;;;;3.30;1.27;;;;;;;;;;5064925;28;20629;-74
2023/10/09 04:34:21;;;;;;;1.60;1.50;;;;;;;;;;5066407;28;20230;-72
2023/10/09 04:36:49;;;;;;;1.77;1.40;;;;;;;;;;5071089;28;20676;-73
2023/10/09 04:39:35;;;;;;;1.37;1.27;;;;;;;;;;5047538;28;20211;-73
2023/10/09 04:45:19;;;;;;;2.70;1.20;;;;;;;;;;5009823;28;20208;-72
2023/10/09 04:47:57;;;;;;;0.83;0.80;;;;;;;;;;5009258;28;20254;-72
2023/10/09 04:55:57;;;;;;;2.43;1.30;;;;;;;;;;5071198;28;20658;-72
2023/10/09 04:58:25;;;;;;;1.83;1.30;;;;;;;;;;5071630;28;20644;-72
2023/10/09 05:03:56;;;;;;;2.43;1.00;;;;;;;;;;5046124;28;20252;-72
2023/10/09 05:06:42;;;;;;;2.27;1.20;;;;;;;;;;5070473;28;20208;-72
2023/10/09 05:09:12;;;;;;;2.33;1.30;;;;;;;;;;5071021;28;20204;-72
2023/10/09 05:14:54;;;;;;;1.90;1.23;;;;;;;;;;5070960;28;20200;-72
2023/10/09 05:17:25;;;;;;;1.27;1.17;;;;;;;;;;5070941;28;20209;-73
2023/10/09 05:20:55;;;;;;;4.33;1.20;;;;;;;;;;5070522;28;20197;-73
2023/10/09 05:22:56;;;;;;;3.90;1.27;;;;;;;;;;5070444;28;20262;-72
2023/10/09 05:25:53;;;;;;;0.97;0.93;;;;;;;;;;5071118;28;20201;-72
2023/10/09 05:28:48;;;;;;;2.70;1.30;;;;;;;;;;5046916;28;20201;-72
2023/10/09 05:31:44;;;;;;;2.10;1.20;;;;;;;;;;5070156;28;20215;-72
2023/10/09 05:34:06;;;;;;;1.17;1.10;;;;;;;;;;5070545;28;20225;-72
2023/10/09 05:36:35;;;;;;;2.60;1.23;;;;;;;;;;5070551;28;20240;-72
2023/10/09 05:39:18;;;;;;;1.30;1.20;;;;;;;;;;5070815;28;20280;-72
2023/10/09 05:41:52;;;;;;;1.20;0.93;;;;;;;;;;5070361;28;20209;-72
2023/10/09 05:49:54;;;;;;;1.93;1.40;;;;;;;;;;5070089;28;20256;-72
2023/10/09 05:52:42;;;;;;;1.70;1.30;;;;;;;;;;5070726;28;20231;-73
2023/10/09 05:55:48;;;;;;;0.93;0.93;;;;;;;;;;5070199;28;20683;-72
2023/10/09 06:02:17;;;;;;;1.87;1.17;;;;;;;;;;5070836;28;20355;-72
2023/10/09 06:04:04;;;;;;;1.40;1.30;;;;;;;;;;5047101;28;20603;-72
2023/10/09 06:06:34;;;;;;;1.13;1.03;;;;;;;;;;5070151;28;20189;-72
2023/10/09 06:11:54;;;;;;;1.67;1.20;;;;;;;;;;5043688;28;20207;-72
2023/10/09 06:14:25;;;;;;;4.20;1.40;;;;;;;;;;5070449;28;20586;-72
2023/10/09 06:17:22;;;;;;;1.77;1.27;;;;;;;;;;5069928;28;20615;-72
2023/10/09 06:19:48;;;;;;;3.50;1.37;;;;;;;;;;5070390;28;20193;-72
2023/10/09 06:22:56;;;;;;;1.13;1.00;;;;;;;;;;5070040;28;20228;-72
2023/10/09 06:25:17;;;;;;;1.90;1.80;;;;;;;;;;5070438;28;20288;-72
2023/10/09 06:28:01;;;;;;;2.50;1.20;;;;;;;;;;5069663;28;20200;-72
2023/10/09 06:30:34;;;;;;;2.33;1.30;;;;;;;;;;5070388;28;20208;-72
2023/10/09 06:33:19;;;;;;;1.90;1.10;;;;;;;;;;5069908;28;20263;-72
2023/10/09 06:35:53;;;;;;;1.80;1.57;;;;;;;;;;5069395;28;21523;-72
2023/10/09 06:38:23;;;;;;;3.53;2.70;;;;;;;;;;5070375;28;20203;-72
2023/10/09 06:43:53;;;;;;;1.87;1.73;;;;;;;;;;5069269;28;20209;-72
2023/10/09 06:46:44;;;;;;;4.13;2.80;;;;;;;;;;5070190;28;20598;-72
2023/10/09 06:52:15;;;;;;;1.67;1.30;;;;;;;;;;5058908;28;20202;-72
2023/10/09 06:54:49;;;;;;;5.07;1.60;;;;;;;;;;5070002;28;20201;-72
2023/10/09 06:57:43;;;;;;;3.40;1.30;;;;;;;;;;5069489;28;20203;-72
2023/10/09 07:02:56;;;;;;;1.73;1.47;;;;;;;;;;5034585;28;20735;-73
2023/10/09 07:05:31;;;;;;;1.33;1.23;;;;;;;;;;5073501;28;20205;-73
2023/10/09 07:08:28;;;;;;;1.67;1.33;;;;;;;;;;5073169;28;20251;-73
2023/10/09 07:10:44;;;;;;;2.63;1.73;;;;;;;;;;5073244;28;20215;-73
2023/10/09 07:13:11;;;;;;;2.83;1.60;;;;;;;;;;5072991;28;20224;-73
2023/10/09 07:18:40;;;;;;;1.87;1.70;;;;;;;;;;5066105;28;20212;-73
2023/10/09 07:21:27;;;;;;;1.27;1.17;;;;;;;;;;5073138;28;20205;-73
2023/10/09 07:23:56;;;;;;;3.40;1.27;;;;;;;;;;5073198;28;20201;-72
2023/10/09 07:26:25;;;;;;;3.43;1.10;;;;;;;;;;5073081;28;20625;-73
2023/10/09 07:29:00;;;;;;;1.53;1.43;;;;;;;;;;5073501;28;20287;-73
2023/10/09 07:31:29;;;;;;;1.90;1.30;;;;;;;;;;5072802;28;20208;-73
2023/10/09 07:33:59;;;;;;;1.30;1.30;;;;;;;;;;5072899;28;20739;-73
2023/10/09 07:36:34;;;;;;;1.60;1.20;;;;;;;;;;5073242;28;20251;-73
2023/10/09 07:39:01;;;;;;;3.10;2.00;;;;;;;;;;5072396;28;20225;-72
2023/10/09 07:41:35;;;;;;;6.30;3.03;;;;;;;;;;5072865;28;20262;-73
2023/10/09 07:44:19;;;;;;;17.83;10.17;;;;;;;;;;5073406;28;20229;-72
2023/10/09 07:46:52;;;;;;;2.00;1.80;;;;;;;;;;5071903;28;20201;-73
2023/10/09 07:49:24;;;;;;;2.90;1.37;;;;;;;;;;5072807;28;20233;-73
2023/10/09 07:51:53;;;;;;;1.80;1.47;;;;;;;;;;5072565;28;20215;-72
2023/10/09 07:54:31;;;;;;;2.70;1.40;;;;;;;;;;5072777;28;20260;-72
2023/10/09 07:57:08;;;;;;;1.57;1.43;;;;;;;;;;5071810;28;20233;-73
2023/10/09 07:59:40;;;;;;;2.20;1.57;;;;;;;;;;5072845;28;20791;-72
2023/10/09 08:02:13;;;;;;;2.13;1.40;;;;;;;;;;5072550;28;20280;-72
2023/10/09 08:04:48;;;;;;;1.80;1.23;;;;;;;;;;5071958;28;20197;-73
2023/10/09 08:07:25;;;;;;;5.07;1.60;;;;;;;;;;5072818;28;20287;-73
2023/10/09 08:11:35;;;;;;;2.80;1.70;;;;;;;;;;5072460;28;20262;-72
2023/10/09 08:12:59;;;;;;;4.43;1.30;;;;;;;;;;5071339;28;20223;-73
2023/10/09 08:15:34;;;;;;;1.70;1.43;;;;;;;;;;5072327;28;20288;-73
2023/10/09 08:18:09;;;;;;;2.27;0.90;;;;;;;;;;5071938;28;20196;-73
2023/10/09 08:20:51;;;;;;;3.70;1.50;;;;;;;;;;5071877;28;20224;-72
2023/10/09 08:23:28;;;;;;;3.40;1.27;;;;;;;;;;5046117;28;20234;-72
2023/10/09 08:26:10;;;;;;;3.47;1.77;;;;;;;;;;5072217;28;20202;-72
2023/10/09 08:28:39;;;;;;;1.70;1.60;;;;;;;;;;5071792;28;20235;-73
2023/10/09 08:31:19;;;;;;;1.87;1.20;;;;;;;;;;5071681;28;20197;-73
2023/10/09 08:33:45;;;;;;;1.97;1.33;;;;;;;;;;5071785;28;20229;-73
2023/10/09 08:36:14;;;;;;;1.23;1.13;;;;;;;;;;5071434;28;20212;-73
2023/10/09 08:38:44;;;;;;;1.27;1.17;;;;;;;;;;5071775;28;20292;-73
2023/10/09 08:41:18;;;;;;;3.43;1.30;;;;;;;;;;5046394;28;20237;-73
2023/10/09 08:43:53;;;;;;;2.37;1.60;;;;;;;;;;5071523;28;20205;-72
2023/10/09 08:46:20;;;;;;;4.70;1.57;;;;;;;;;;5071477;28;20207;-73
2023/10/09 08:48:48;;;;;;;5.30;1.50;;;;;;;;;;5071247;28;20715;-72
2023/10/09 08:51:16;;;;;;;2.23;1.60;;;;;;;;;;5071405;28;20209;-73
2023/10/09 08:53:45;;;;;;;1.53;1.43;;;;;;;;;;5071360;28;20228;-72
2023/10/09 08:56:15;;;;;;;3.60;3.30;;;;;;;;;;5071347;28;20209;-73
2023/10/09 08:58:42;;;;;;;1.90;1.13;;;;;;;;;;5070665;28;20233;-72
2023/10/09 09:01:11;;;;;;;1.67;1.57;;;;;;;;;;5071405;28;20209;-73
2023/10/09 09:03:44;;;;;;;8.10;6.50;;;;;;;;;;5071007;28;20201;-73
2023/10/09 09:06:11;;;;;;;7.27;3.83;;;;;;;;;;5070905;28;20686;-73
2023/10/09 09:08:40;;;;;;;4.70;1.80;;;;;;;;;;5070509;28;20664;-72
2023/10/09 09:11:12;;;;;;;3.23;1.20;;;;;;;;;;5070906;28;20200;-73
2023/10/09 09:13:49;;;;;;;3.20;1.33;;;;;;;;;;5046217;28;20229;-72
2023/10/09 09:16:20;;;;;;;1.77;1.27;;;;;;;;;;5071015;28;20736;-73
2023/10/09 09:19:00;;;;;;;2.17;1.97;;;;;;;;;;5070832;28;20216;-73
2023/10/09 09:21:27;;;;;;;1.73;1.63;;;;;;;;;;5070879;28;20840;-72
2023/10/09 09:23:56;;;;;;;1.93;1.60;;;;;;;;;;5070450;28;20679;-72
2023/10/09 09:26:37;;;;;;;1.60;1.50;;;;;;;;;;5070830;28;20209;-73
2023/10/09 09:29:06;;;;;;;1.77;1.57;;;;;;;;;;5070822;28;20292;-73
2023/10/09 09:31:38;;;;;;;1.43;1.33;;;;;;;;;;5070530;28;20201;-73
2023/10/09 09:34:13;;;;;;;2.97;2.20;;;;;;;;;;5070437;28;20703;-73
2023/10/09 09:36:54;;;;;;;3.30;1.80;;;;;;;;;;5070580;28;20721;-72
2023/10/09 09:39:27;;;;;;;1.80;1.40;;;;;;;;;;5070757;28;20654;-73
2023/10/09 09:42:03;;;;;;;1.40;1.30;;;;;;;;;;5070163;28;20204;-73
2023/10/09 09:44:34;;;;;;;4.43;1.50;;;;;;;;;;5071050;28;20644;-73
2023/10/09 09:47:04;;;;;;;4.53;2.00;;;;;;;;;;5070398;28;20212;-73
2023/10/09 09:49:32;;;;;;;2.53;2.10;;;;;;;;;;5070473;28;20741;-73
2023/10/09 09:52:02;;;;;;;6.17;2.37;;;;;;;;;;5070507;28;20209;-73
2023/10/09 09:54:33;;;;;;;4.70;2.13;;;;;;;;;;5070294;28;20232;-73
2023/10/09 09:57:08;;;;;;;1.90;1.47;;;;;;;;;;5070848;28;20201;-73
2023/10/09 09:59:49;;;;;;;3.43;2.17;;;;;;;;;;5070263;28;20254;-73
2023/10/09 10:02:22;;;;;;;1.57;1.47;;;;;;;;;;5046400;28;20688;-73
2023/10/09 10:04:54;;;;;;;1.80;1.53;;;;;;;;;;5070376;28;20206;-72
2023/10/09 10:07:22;;;;;;;5.20;1.87;;;;;;;;;;5070477;28;20201;-73
2023/10/09 10:09:54;;;;;;;2.63;1.30;;;;;;;;;;5070151;28;20258;-73
2023/10/09 10:13:00;;;;;;;3.43;1.43;;;;;;;;;;5070795;28;20703;-73
2023/10/09 10:15:58;;;;;;;1.87;1.60;;;;;;;;;;5070473;28;21215;-73
2023/10/09 10:18:25;;;;;;;1.80;1.60;;;;;;;;;;5069898;28;20204;-73
2023/10/09 10:21:15;;;;;;;2.10;1.60;;;;;;;;;;5070429;28;20212;-73
2023/10/09 10:23:47;;;;;;;1.53;1.43;;;;;;;;;;5070203;28;20201;-73
2023/10/09 10:26:26;;;;;;;2.20;1.40;;;;;;;;;;5070251;28;20231;-73
2023/10/09 10:29:23;;;;;;;2.03;1.73;;;;;;;;;;5070423;28;20208;-73
2023/10/09 10:31:54;;;;;;;3.70;1.57;;;;;;;;;;5051474;28;20208;-73
2023/10/09 10:34:23;;;;;;;5.57;1.50;;;;;;;;;;5070962;28;20228;-73
2023/10/09 10:36:52;;;;;;;2.17;1.50;;;;;;;;;;5074183;28;20201;-73
2023/10/09 10:39:39;;;;;;;4.53;2.23;;;;;;;;;;5073640;28;20224;-73
2023/10/09 10:42:09;;;;;;;1.43;1.20;;;;;;;;;;5074027;28;20216;-74
2023/10/09 10:44:38;;;;;;;5.47;1.23;;;;;;;;;;5074325;28;20208;-73
2023/10/09 10:47:05;;;;;;;2.43;1.60;;;;;;;;;;5073389;28;20197;-73
2023/10/09 10:49:37;;;;;;;2.50;1.60;;;;;;;;;;5074013;28;20252;-73
2023/10/09 10:52:17;;;;;;;3.53;1.30;;;;;;;;;;5072951;28;20228;-74
2023/10/09 10:54:45;;;;;;;1.20;1.10;;;;;;;;;;5074062;28;20229;-73
2023/10/09 10:57:28;;;;;;;3.77;1.50;;;;;;;;;;5073746;28;20197;-73
2023/10/09 11:00:12;;;;;;;2.83;1.50;;;;;;;;;;5073413;28;20205;-73
2023/10/09 11:02:42;;;;;;;3.33;2.23;;;;;;;;;;5073524;28;20197;-73
2023/10/09 11:05:24;;;;;;;2.33;1.77;;;;;;;;;;5074059;28;20197;-73
2023/10/09 11:07:56;;;;;;;3.80;1.53;;;;;;;;;;5073064;28;20205;-73
2023/10/09 11:10:28;;;;;;;3.47;1.77;;;;;;;;;;5073762;28;20201;-73
2023/10/09 11:15:56;;;;;;;3.00;1.57;;;;;;;;;;5073547;28;20220;-74
2023/10/09 11:18:26;;;;;;;1.73;1.50;;;;;;;;;;5073484;28;20212;-73
2023/10/09 11:21:22;;;;;;;1.40;1.30;;;;;;;;;;5073242;28;20230;-73
2023/10/09 11:23:53;;;;;;;2.20;1.50;;;;;;;;;;5073162;28;20219;-73
2023/10/09 11:26:25;;;;;;;2.73;1.30;;;;;;;;;;5073161;28;20205;-73
2023/10/09 11:29:15;;;;;;;3.87;1.30;;;;;;;;;;5073703;28;20205;-73
2023/10/09 11:31:57;;;;;;;3.60;2.07;;;;;;;;;;5073409;28;20197;-74
2023/10/09 11:34:31;;;;;;;2.07;1.33;;;;;;;;;;5072779;28;20232;-73
2023/10/09 11:37:00;;;;;;;4.87;1.70;;;;;;;;;;5072824;28;20204;-73
2023/10/09 11:39:34;;;;;;;1.20;1.10;;;;;;;;;;5047335;28;20659;-73
2023/10/09 11:42:08;;;;;;;3.70;1.60;;;;;;;;;;5072899;28;20201;-73
2023/10/09 11:44:39;;;;;;;2.60;1.40;;;;;;;;;;5073092;28;20197;-73
2023/10/09 11:47:25;;;;;;;4.87;1.80;;;;;;;;;;5071919;28;20280;-73
2023/10/09 11:50:12;;;;;;;1.40;1.30;;;;;;;;;;5073422;28;20229;-73
2023/10/09 11:53:08;;;;;;;4.37;1.70;;;;;;;;;;5050988;28;20209;-73
2023/10/09 11:55:35;;;;;;;4.07;1.70;;;;;;;;;;5072601;28;20225;-73
2023/10/09 11:58:04;;;;;;;2.43;1.90;;;;;;;;;;5072339;28;20232;-73
2023/10/09 12:00:42;;;;;;;5.23;1.90;;;;;;;;;;5046544;28;20288;-72
2023/10/09 12:03:10;;;;;;;3.70;2.30;;;;;;;;;;5072657;28;20205;-73
2023/10/09 12:05:37;;;;;;;3.63;1.87;;;;;;;;;;5072087;28;20216;-72
2023/10/09 12:08:08;;;;;;;2.13;1.70;;;;;;;;;;5072779;28;20201;-73
2023/10/09 12:10:38;;;;;;;2.00;1.67;;;;;;;;;;5072667;28;20591;-72
2023/10/09 12:13:05;;;;;;;3.67;1.60;;;;;;;;;;5071721;28;20205;-73
2023/10/09 12:15:37;;;;;;;5.70;1.97;;;;;;;;;;5072604;28;20232;-72
2023/10/09 12:18:06;;;;;;;3.70;1.63;;;;;;;;;;5071577;28;20197;-73
2023/10/09 12:20:35;;;;;;;3.50;1.80;;;;;;;;;;5072632;28;20211;-73
2023/10/09 12:23:04;;;;;;;4.57;2.00;;;;;;;;;;5071496;28;20197;-73
2023/10/09 12:25:32;;;;;;;3.13;1.60;;;;;;;;;;5072174;28;20286;-72
2023/10/09 12:28:01;;;;;;;1.60;1.37;;;;;;;;;;5071699;28;20308;-72
2023/10/09 12:30:28;;;;;;;2.87;2.60;;;;;;;;;;5071702;28;20284;-73
2023/10/09 12:32:57;;;;;;;3.57;1.80;;;;;;;;;;5071820;28;20215;-73
2023/10/09 12:35:24;;;;;;;2.60;1.97;;;;;;;;;;5072040;28;20335;-73
2023/10/09 12:37:54;;;;;;;1.40;1.30;;;;;;;;;;5070862;28;20292;-72
2023/10/09 12:40:27;;;;;;;1.67;1.57;;;;;;;;;;5072038;28;20201;-73
2023/10/09 12:42:58;;;;;;;3.03;1.70;;;;;;;;;;5071781;28;20205;-73
2023/10/09 12:45:26;;;;;;;3.90;1.87;;;;;;;;;;5071387;28;20200;-73
2023/10/09 12:47:58;;;;;;;2.53;1.70;;;;;;;;;;5071740;28;20611;-73
2023/10/09 12:50:28;;;;;;;3.37;1.80;;;;;;;;;;5070962;28;20287;-73
2023/10/09 12:53:01;;;;;;;6.70;1.90;;;;;;;;;;5071625;28;20227;-73
2023/10/09 12:55:31;;;;;;;3.07;1.57;;;;;;;;;;5071950;28;20240;-72
2023/10/09 12:58:06;;;;;;;4.93;1.73;;;;;;;;;;5070435;28;20205;-72
2023/10/09 13:00:36;;;;;;;2.00;1.43;;;;;;;;;;5071286;28;20208;-73
2023/10/09 13:03:16;;;;;;;2.80;1.67;;;;;;;;;;5070938;28;20202;-73
2023/10/09 13:05:54;;;;;;;4.00;2.37;;;;;;;;;;5070993;28;20685;-73
2023/10/09 13:08:24;;;;;;;3.93;1.90;;;;;;;;;;5071146;28;20639;-73
2023/10/09 13:11:04;;;;;;;3.47;1.50;;;;;;;;;;5071452;28;20296;-72
2023/10/09 13:13:41;;;;;;;4.80;1.93;;;;;;;;;;5071407;28;20205;-72
2023/10/09 13:16:11;;;;;;;2.53;1.57;;;;;;;;;;5070779;28;20232;-73
2023/10/09 13:18:39;;;;;;;6.67;1.53;;;;;;;;;;5071493;28;20292;-73
2023/10/09 13:21:06;;;;;;;2.30;2.00;;;;;;;;;;5070721;28;20302;-72
2023/10/09 13:23:46;;;;;;;2.67;2.10;;;;;;;;;;5071489;28;20636;-73
2023/10/09 13:26:24;;;;;;;2.50;1.97;;;;;;;;;;5070823;28;20667;-73
2023/10/09 13:28:52;;;;;;;2.87;1.97;;;;;;;;;;5071115;28;20219;-73
2023/10/09 13:31:20;;;;;;;3.20;1.70;;;;;;;;;;5070376;28;20204;-73
2023/10/09 13:33:48;;;;;;;4.00;1.60;;;;;;;;;;5070990;28;20228;-73
2023/10/09 13:36:19;;;;;;;3.00;1.53;;;;;;;;;;5071258;28;20639;-73
2023/10/09 13:38:47;;;;;;;5.00;1.70;;;;;;;;;;5070717;28;20590;-73
2023/10/09 13:41:17;;;;;;;6.63;2.30;;;;;;;;;;5070401;28;20219;-73
2023/10/09 13:43:44;;;;;;;2.87;1.80;;;;;;;;;;5070521;28;20289;-73
2023/10/09 13:46:12;;;;;;;3.63;1.83;;;;;;;;;;5071152;28;20596;-73
2023/10/09 13:48:41;;;;;;;2.27;1.33;;;;;;;;;;5070493;28;20237;-72
2023/10/09 13:51:13;;;;;;;5.60;1.50;;;;;;;;;;5070276;28;20266;-72
2023/10/09 13:53:44;;;;;;;1.73;1.33;;;;;;;;;;5070189;28;20747;-73
2023/10/09 13:56:18;;;;;;;3.33;1.73;;;;;;;;;;5070584;28;20735;-73
2023/10/09 13:58:49;;;;;;;4.10;1.70;;;;;;;;;;5070595;28;20216;-73
2023/10/09 14:01:26;;;;;;;5.70;1.77;;;;;;;;;;5070559;28;20207;-73
2023/10/09 14:03:54;;;;;;;2.33;2.00;;;;;;;;;;5071057;28;20215;-72
2023/10/09 14:06:30;;;;;;;2.73;1.87;;;;;;;;;;5070522;28;20259;-72
2023/10/09 14:08:57;;;;;;;3.47;2.00;;;;;;;;;;5069863;28;20233;-72
2023/10/09 14:11:25;;;;;;;4.27;2.00;;;;;;;;;;5069698;28;20201;-73
2023/10/09 14:13:53;;;;;;;5.40;1.90;;;;;;;;;;5070803;28;20212;-72
2023/10/09 14:16:27;;;;;;;2.70;1.67;;;;;;;;;;5069977;28;20220;-73
2023/10/09 14:18:56;;;;;;;4.40;2.07;;;;;;;;;;5070389;28;20621;-72
2023/10/09 14:21:25;;;;;;;2.10;1.90;;;;;;;;;;5069848;28;20271;-72
2023/10/09 14:23:56;;;;;;;3.23;1.90;;;;;;;;;;5070447;28;20208;-73
2023/10/09 14:26:26;;;;;;;7.83;3.83;;;;;;;;;;5069972;28;20254;-72
2023/10/09 14:28:56;;;;;;;5.83;2.53;;;;;;;;;;5070627;28;20197;-72
2023/10/09 14:31:26;;;;;;;2.23;1.80;;;;;;;;;;5053376;28;20270;-73
2023/10/09 14:33:54;;;;;;;5.23;1.93;;;;;;;;;;5067449;28;20299;-73
2023/10/09 14:36:21;;;;;;;5.83;2.33;;;;;;;;;;5068648;28;20240;-73
2023/10/09 14:38:52;;;;;;;5.47;2.03;;;;;;;;;;5068802;28;20204;-73
2023/10/09 14:41:23;;;;;;;6.23;2.00;;;;;;;;;;5068962;28;20199;-73
2023/10/09 14:43:52;;;;;;;6.23;1.97;;;;;;;;;;5051845;28;20283;-73
2023/10/09 14:46:24;;;;;;;4.60;1.90;;;;;;;;;;5049465;28;20706;-74
2023/10/09 14:48:53;;;;;;;3.07;1.90;;;;;;;;;;5068711;28;20262;-73
2023/10/09 14:51:26;;;;;;;1.87;1.73;;;;;;;;;;5070481;28;20680;-73
2023/10/09 14:53:57;;;;;;;7.10;2.10;;;;;;;;;;5070377;28;20200;-73
2023/10/09 14:56:28;;;;;;;3.80;1.97;;;;;;;;;;5069705;28;20217;-73
2023/10/09 14:58:58;;;;;;;4.10;2.03;;;;;;;;;;5070086;28;20201;-72
2023/10/09 15:01:25;;;;;;;7.87;2.30;;;;;;;;;;5069482;28;20272;-73
2023/10/09 15:03:52;;;;;;;4.53;2.70;;;;;;;;;;5070322;28;20203;-73
2023/10/09 15:06:19;;;;;;;4.20;2.63;;;;;;;;;;5069761;28;20236;-73
2023/10/09 15:08:47;;;;;;;7.37;2.30;;;;;;;;;;5069709;28;20203;-72
2023/10/09 15:11:14;;;;;;;6.53;2.23;;;;;;;;;;5069562;28;20645;-73
2023/10/09 15:13:41;;;;;;;7.73;2.43;;;;;;;;;;5059649;28;20219;-73
2023/10/09 15:16:10;;;;;;;3.17;2.20;;;;;;;;;;5066869;28;20281;-73
2023/10/09 15:18:38;;;;;;;4.77;2.50;;;;;;;;;;5069721;28;20298;-73
2023/10/09 15:21:06;;;;;;;3.17;2.30;;;;;;;;;;5069834;28;20234;-72
2023/10/09 15:23:33;;;;;;;6.80;3.53;;;;;;;;;;5073339;28;20206;-73
2023/10/09 15:26:01;;;;;;;7.40;2.60;;;;;;;;;;5072828;28;20208;-73
2023/10/09 15:28:32;;;;;;;8.97;3.50;;;;;;;;;;5072885;28;20723;-73
2023/10/09 15:30:59;;;;;;;5.23;3.30;;;;;;;;;;5060047;28;20263;-73
2023/10/09 15:33:30;;;;;;;3.27;2.93;;;;;;;;;;5073086;28;20300;-73
2023/10/09 15:35:58;;;;;;;18.40;9.20;;;;;;;;;;5063051;28;20286;-73
2023/10/09 15:38:25;;;;;;;25.47;15.63;;;;;;;;;;5072782;28;20208;-73
2023/10/09 15:40:52;;;;;;;6.77;4.67;;;;;;;;;;5072338;28;20196;-73
2023/10/09 15:43:19;;;;;;;6.30;3.20;;;;;;;;;;5073035;28;20212;-73
2023/10/09 15:45:47;;;;;;;8.90;6.50;;;;;;;;;;5059070;28;20204;-73
2023/10/09 15:48:15;;;;;;;16.83;12.07;;;;;;;;;;5072797;28;20204;-73
2023/10/09 15:50:48;;;;;;;9.37;6.70;;;;;;;;;;5072318;28;20665;-73
2023/10/09 15:53:16;;;;;;;10.37;5.57;;;;;;;;;;5059746;28;20596;-73
2023/10/09 15:55:44;;;;;;;7.10;3.77;;;;;;;;;;5058724;28;20227;-73
2023/10/09 15:58:11;;;;;;;3.63;2.67;;;;;;;;;;5052577;28;20208;-73
2023/10/09 16:00:39;;;;;;;5.50;3.27;;;;;;;;;;5052510;28;20257;-73
2023/10/09 16:03:09;;;;;;;3.27;2.63;;;;;;;;;;5052542;28;20673;-73
2023/10/09 16:05:36;;;;;;;6.47;2.90;;;;;;;;;;5052815;28;20589;-73